John M Carras — SVBK5 — position and weather

sailwx.info

Track history (hours):
 
Tides and Currents Weather Stations Pressure Air Temp Water Temp Dewpoint Dewpoint Depression Visibility Wind Speed Wind Dir Waves Ship Positions

John M Carras

Last reported at 2017-Feb-24 17:28 UTC. Time now 2017-Feb-24 19:24 UTC.
Position S 00°04' W 051°07'.

Length 229 m; draft 11.6 m.

Type: Ship. MMSI: 241150000.

Date/timePositionNaut miles runAvg speedWind from/ knotsBaromVisibWave heightAir tempDewpointWater temp
2017-Feb-24 17:28S 00°04' W 051°07'2 1.9
2017-Feb-24 16:33S 00°03' W 051°05'5 5.0
2017-Feb-24 15:34S 00°01' W 051°01'31311.5
2017-Feb-23 12:27S 01°39' W 055°58'1111.4
2017-Feb-23 11:30S 01°31' W 056°05'8 9.0
2017-Feb-23 10:34S 01°32' W 056°14'10 9.6
2017-Feb-23 09:34S 01°27' W 056°22'2 1.7
2017-Feb-23 08:30S 01°27' W 056°24'0 0.0
2017-Feb-23 07:03S 01°27' W 056°24'0 0.0
2017-Feb-23 06:29S 01°27' W 056°24'0 0.0
2017-Feb-23 05:25S 01°27' W 056°24'0 0.0
2017-Feb-23 04:28S 01°27' W 056°24'0 0.0
2017-Feb-23 03:27S 01°27' W 056°24'0 0.0
2017-Feb-23 02:27S 01°27' W 056°24'0 0.0
2017-Feb-23 01:33S 01°27' W 056°24'1 1.0
2017-Feb-23 00:33S 01°28' W 056°23'0 0.0
2017-Feb-22 23:33S 01°28' W 056°23'0 0.0
2017-Feb-22 22:33S 01°28' W 056°23'0 0.0
2017-Feb-22 21:33S 01°28' W 056°23'0 0.0
2017-Feb-22 20:33S 01°28' W 056°23'0 0.0
2017-Feb-22 19:33S 01°28' W 056°23'0 0.0
2017-Feb-22 18:33S 01°28' W 056°23'0 0.0
2017-Feb-22 17:33S 01°28' W 056°23'0 0.0
2017-Feb-22 16:33S 01°28' W 056°23'0 0.0
2017-Feb-22 15:33S 01°28' W 056°23'0 0.0
2017-Feb-22 14:33S 01°28' W 056°23'0 0.0
2017-Feb-22 13:33S 01°28' W 056°23'0 0.0
2017-Feb-22 12:33S 01°28' W 056°23'0 0.0
2017-Feb-22 11:33S 01°28' W 056°23'0 0.0
2017-Feb-22 10:33S 01°28' W 056°23'0 0.0
2017-Feb-22 09:33S 01°28' W 056°23'0 0.0
2017-Feb-22 08:33S 01°28' W 056°23'0 0.0
2017-Feb-22 07:22S 01°28' W 056°23'0 0.0
2017-Feb-22 06:31S 01°28' W 056°23'0 0.0
2017-Feb-22 05:27S 01°28' W 056°23'0 0.0
2017-Feb-22 04:18S 01°28' W 056°23'0 0.0
2017-Feb-22 03:28S 01°28' W 056°23'0 0.0
2017-Feb-22 02:33S 01°28' W 056°23'0 0.0
2017-Feb-22 01:33S 01°28' W 056°23'0 0.0
2017-Feb-22 00:33S 01°28' W 056°23'0 0.0
2017-Feb-21 23:28S 01°28' W 056°23'1 0.8
2017-Feb-21 22:33S 01°27' W 056°22'0 0.4
2017-Feb-21 21:28S 01°28' W 056°22'0 0.0
2017-Feb-21 19:17S 01°28' W 056°22'0 0.0
2017-Feb-21 18:31S 01°28' W 056°22'0 0.0
2017-Feb-21 14:32S 01°28' W 056°22'0 0.0
2017-Feb-21 13:32S 01°28' W 056°22'0 0.0
2017-Feb-21 12:32S 01°28' W 056°22'0 0.0
2017-Feb-21 11:32S 01°28' W 056°22'0 0.0
2017-Feb-21 10:32S 01°28' W 056°22'0 0.0
2017-Feb-21 09:32S 01°28' W 056°22'0 0.0
2017-Feb-21 08:32S 01°28' W 056°22'0 0.0
2017-Feb-21 07:32S 01°28' W 056°22'0 0.0
2017-Feb-21 06:32S 01°28' W 056°22'0 0.0
2017-Feb-21 05:32S 01°28' W 056°22'0 0.0
2017-Feb-21 04:32S 01°28' W 056°22'0 0.0
2017-Feb-21 03:32S 01°28' W 056°22'0 0.0
2017-Feb-21 02:32S 01°28' W 056°22'0 0.0
2017-Feb-21 01:32S 01°28' W 056°22'0 0.0
2017-Feb-21 00:29S 01°28' W 056°22'0 0.0
2017-Feb-20 23:32S 01°28' W 056°22'0 0.0
2017-Feb-20 22:32S 01°28' W 056°22'0 0.0
2017-Feb-20 21:32S 01°28' W 056°22'0 0.0
2017-Feb-20 20:32S 01°28' W 056°22'0 0.0
2017-Feb-20 19:32S 01°28' W 056°22'0 0.0
2017-Feb-20 18:32S 01°28' W 056°22'0 0.0
2017-Feb-20 17:32S 01°28' W 056°22'0 0.0
2017-Feb-20 16:32S 01°28' W 056°22'0 0.0
2017-Feb-20 15:32S 01°28' W 056°22'0 0.0
2017-Feb-20 14:32S 01°28' W 056°22'0 0.0
2017-Feb-20 13:32S 01°28' W 056°22'0 0.0
2017-Feb-20 12:32S 01°28' W 056°22'0 0.0
2017-Feb-20 11:32S 01°28' W 056°22'0 0.0
2017-Feb-20 10:32S 01°28' W 056°22'2 1.9
2017-Feb-20 09:33S 01°28' W 056°20'311 8.2
2017-Feb-18 19:33S 00°13' W 051°18'1010.1
2017-Feb-18 18:33S 00°07' W 051°10'8 7.8
2017-Feb-18 17:33S 00°02' W 051°03'7 6.8
2017-Feb-18 16:33N 00°03' W 050°59'1 1.0
2017-Feb-18 15:26N 00°04' W 050°59'0 0.0
2017-Feb-18 14:33N 00°04' W 050°59'0 0.2
2017-Feb-18 13:32N 00°04' W 050°59'0 0.1
2017-Feb-18 12:32N 00°04' W 050°59'0 0.0
2017-Feb-18 11:29N 00°04' W 050°59'0 0.0
2017-Feb-18 10:32N 00°04' W 050°59'0 0.0
2017-Feb-18 09:32N 00°04' W 050°59'0 0.2
2017-Feb-18 08:32N 00°04' W 050°59'0 0.0
2017-Feb-18 07:29N 00°04' W 050°59'0 0.0
2017-Feb-18 06:30N 00°04' W 050°59'0 0.0
2017-Feb-18 05:32N 00°04' W 050°59'0 0.0
2017-Feb-18 04:32N 00°04' W 050°59'0 0.0
2017-Feb-18 03:32N 00°04' W 050°59'0 0.0
2017-Feb-18 02:32N 00°04' W 050°59'0 0.1
2017-Feb-18 01:32N 00°04' W 050°59'0 0.2
2017-Feb-18 00:32N 00°04' W 050°59'0 0.0
2017-Feb-17 23:32N 00°04' W 050°59'0 0.0
2017-Feb-17 22:32N 00°04' W 050°59'0 0.0
2017-Feb-17 21:32N 00°04' W 050°59'0 0.2
2017-Feb-17 20:32N 00°04' W 050°59'0 0.1
2017-Feb-17 19:32N 00°04' W 050°59'0 0.0
2017-Feb-17 18:32N 00°04' W 050°59'0 0.0
2017-Feb-17 16:32N 00°04' W 050°59'0 0.0
2017-Feb-17 15:32N 00°04' W 050°59'0 0.0
2017-Feb-17 14:32N 00°04' W 050°59'0 0.1
2017-Feb-17 11:26N 00°04' W 050°59'0 0.0
2017-Feb-17 09:32N 00°04' W 050°59'0 0.1
2017-Feb-17 07:32N 00°04' W 050°59'0 0.0
2017-Feb-17 04:32N 00°04' W 050°59'0 0.0
2017-Feb-17 03:32N 00°04' W 050°59'0 0.0
2017-Feb-17 01:32N 00°04' W 050°59'0 0.1
2017-Feb-16 23:32N 00°04' W 050°59'0 0.0
2017-Feb-16 21:32N 00°04' W 050°59'0 0.1
2017-Feb-16 19:20N 00°04' W 050°59'0 0.1
2017-Feb-16 18:22N 00°04' W 050°59'0 0.0
2017-Feb-16 17:32N 00°04' W 050°59'0 0.0
2017-Feb-16 16:32N 00°04' W 050°59'0 0.0
2017-Feb-16 15:32N 00°04' W 050°59'0 0.0
2017-Feb-16 14:32N 00°04' W 050°59'0 0.0
2017-Feb-16 13:32N 00°04' W 050°59'0 0.0
2017-Feb-16 12:32N 00°04' W 050°59'0 0.2
2017-Feb-16 11:32N 00°04' W 050°59'0 0.1
2017-Feb-16 10:32N 00°04' W 050°59'0 0.0
2017-Feb-16 09:26N 00°04' W 050°59'0 0.0
2017-Feb-16 08:32N 00°04' W 050°59'0 0.1
2017-Feb-16 07:32N 00°04' W 050°59'0 0.1
2017-Feb-16 03:20N 00°04' W 050°59'0 0.0
2017-Feb-16 02:32N 00°04' W 050°59'0 0.1
2017-Feb-16 01:32N 00°04' W 050°59'0 0.0
2017-Feb-16 00:32N 00°04' W 050°59'0 0.1
2017-Feb-15 23:32N 00°04' W 050°59'0 0.2
2017-Feb-15 22:32N 00°04' W 050°59'0 0.0
2017-Feb-15 21:32N 00°04' W 050°59'0 0.0
2017-Feb-15 20:32N 00°04' W 050°59'0 0.0
2017-Feb-15 19:32N 00°04' W 050°59'0 0.2
2017-Feb-15 18:26N 00°04' W 050°59'0 0.0
2017-Feb-15 17:32N 00°04' W 050°59'0 0.0
2017-Feb-15 16:32N 00°04' W 050°59'0 0.0
2017-Feb-15 15:32N 00°04' W 050°59'0 0.0
2017-Feb-15 14:32N 00°04' W 050°59'0 0.0
2017-Feb-15 13:32N 00°04' W 050°59'0 0.0
2017-Feb-15 12:32N 00°04' W 050°59'0 0.1
2017-Feb-15 11:32N 00°04' W 050°59'0 0.2
2017-Feb-15 10:32N 00°04' W 050°59'0 0.1
2017-Feb-15 09:32N 00°04' W 050°59'0 0.0
2017-Feb-15 08:32N 00°04' W 050°59'0 0.0
2017-Feb-15 07:32N 00°04' W 050°59'0 0.2
2017-Feb-15 06:32N 00°04' W 050°59'0 0.1
2017-Feb-15 05:31N 00°04' W 050°59'0 0.0
2017-Feb-15 04:29N 00°04' W 050°59'0 0.0
2017-Feb-15 03:29N 00°04' W 050°59'0 0.0
2017-Feb-15 02:33N 00°04' W 050°59'0 0.0
2017-Feb-15 01:33N 00°04' W 050°59'0 0.0
2017-Feb-15 00:33N 00°04' W 050°59'0 0.1
2017-Feb-14 23:33N 00°04' W 050°59'0 0.2
2017-Feb-14 22:27N 00°04' W 050°59'0 0.1
2017-Feb-14 21:33N 00°04' W 050°59'0 0.0
2017-Feb-14 20:33N 00°04' W 050°59'0 0.0
2017-Feb-14 19:33N 00°04' W 050°59'0 0.1
2017-Feb-14 18:09N 00°04' W 050°59'0 0.3
2017-Feb-14 17:33N 00°04' W 050°59'  
Track history (hours):
 
Tides and Currents Weather Stations Pressure Air Temp Water Temp Dewpoint Dewpoint Depression Visibility Wind Speed Wind Dir Waves Ship Positions

John M Carras

Last reported at 2017-Feb-24 17:28 UTC. Time now 2017-Feb-24 19:24 UTC.
Position S 00°04' W 051°07'.

Length 229 m; draft 11.6 m.

Type: Ship. MMSI: 241150000.

Date/timePositionNaut miles runAvg speedWind from/ knotsBaromVisibWave heightAir tempDewpointWater temp
2017-Feb-24 17:28S 00°04' W 051°07'2 1.9
2017-Feb-24 16:33S 00°03' W 051°05'5 5.0
2017-Feb-24 15:34S 00°01' W 051°01'31311.5
2017-Feb-23 12:27S 01°39' W 055°58'1111.4
2017-Feb-23 11:30S 01°31' W 056°05'8 9.0
2017-Feb-23 10:34S 01°32' W 056°14'10 9.6
2017-Feb-23 09:34S 01°27' W 056°22'2 1.7
2017-Feb-23 08:30S 01°27' W 056°24'0 0.0
2017-Feb-23 07:03S 01°27' W 056°24'0 0.0
2017-Feb-23 06:29S 01°27' W 056°24'0 0.0
2017-Feb-23 05:25S 01°27' W 056°24'0 0.0
2017-Feb-23 04:28S 01°27' W 056°24'0 0.0
2017-Feb-23 03:27S 01°27' W 056°24'0 0.0
2017-Feb-23 02:27S 01°27' W 056°24'0 0.0
2017-Feb-23 01:33S 01°27' W 056°24'1 1.0
2017-Feb-23 00:33S 01°28' W 056°23'0 0.0
2017-Feb-22 23:33S 01°28' W 056°23'0 0.0
2017-Feb-22 22:33S 01°28' W 056°23'0 0.0
2017-Feb-22 21:33S 01°28' W 056°23'0 0.0
2017-Feb-22 20:33S 01°28' W 056°23'0 0.0
2017-Feb-22 19:33S 01°28' W 056°23'0 0.0
2017-Feb-22 18:33S 01°28' W 056°23'0 0.0
2017-Feb-22 17:33S 01°28' W 056°23'0 0.0
2017-Feb-22 16:33S 01°28' W 056°23'0 0.0
2017-Feb-22 15:33S 01°28' W 056°23'0 0.0
2017-Feb-22 14:33S 01°28' W 056°23'0 0.0
2017-Feb-22 13:33S 01°28' W 056°23'0 0.0
2017-Feb-22 12:33S 01°28' W 056°23'0 0.0
2017-Feb-22 11:33S 01°28' W 056°23'0 0.0
2017-Feb-22 10:33S 01°28' W 056°23'0 0.0
2017-Feb-22 09:33S 01°28' W 056°23'0 0.0
2017-Feb-22 08:33S 01°28' W 056°23'0 0.0
2017-Feb-22 07:22S 01°28' W 056°23'0 0.0
2017-Feb-22 06:31S 01°28' W 056°23'0 0.0
2017-Feb-22 05:27S 01°28' W 056°23'0 0.0
2017-Feb-22 04:18S 01°28' W 056°23'0 0.0
2017-Feb-22 03:28S 01°28' W 056°23'0 0.0
2017-Feb-22 02:33S 01°28' W 056°23'0 0.0
2017-Feb-22 01:33S 01°28' W 056°23'0 0.0
2017-Feb-22 00:33S 01°28' W 056°23'0 0.0
2017-Feb-21 23:28S 01°28' W 056°23'1 0.8
2017-Feb-21 22:33S 01°27' W 056°22'0 0.4
2017-Feb-21 21:28S 01°28' W 056°22'0 0.0
2017-Feb-21 19:17S 01°28' W 056°22'0 0.0
2017-Feb-21 18:31S 01°28' W 056°22'0 0.0
2017-Feb-21 14:32S 01°28' W 056°22'0 0.0
2017-Feb-21 13:32S 01°28' W 056°22'0 0.0
2017-Feb-21 12:32S 01°28' W 056°22'0 0.0
2017-Feb-21 11:32S 01°28' W 056°22'0 0.0
2017-Feb-21 10:32S 01°28' W 056°22'0 0.0
2017-Feb-21 09:32S 01°28' W 056°22'0 0.0
2017-Feb-21 08:32S 01°28' W 056°22'0 0.0
2017-Feb-21 07:32S 01°28' W 056°22'0 0.0
2017-Feb-21 06:32S 01°28' W 056°22'0 0.0
2017-Feb-21 05:32S 01°28' W 056°22'0 0.0
2017-Feb-21 04:32S 01°28' W 056°22'0 0.0
2017-Feb-21 03:32S 01°28' W 056°22'0 0.0
2017-Feb-21 02:32S 01°28' W 056°22'0 0.0
2017-Feb-21 01:32S 01°28' W 056°22'0 0.0
2017-Feb-21 00:29S 01°28' W 056°22'0 0.0
2017-Feb-20 23:32S 01°28' W 056°22'0 0.0
2017-Feb-20 22:32S 01°28' W 056°22'0 0.0
2017-Feb-20 21:32S 01°28' W 056°22'0 0.0
2017-Feb-20 20:32S 01°28' W 056°22'0 0.0
2017-Feb-20 19:32S 01°28' W 056°22'0 0.0
2017-Feb-20 18:32S 01°28' W 056°22'0 0.0
2017-Feb-20 17:32S 01°28' W 056°22'0 0.0
2017-Feb-20 16:32S 01°28' W 056°22'0 0.0
2017-Feb-20 15:32S 01°28' W 056°22'0 0.0
2017-Feb-20 14:32S 01°28' W 056°22'0 0.0
2017-Feb-20 13:32S 01°28' W 056°22'0 0.0
2017-Feb-20 12:32S 01°28' W 056°22'0 0.0
2017-Feb-20 11:32S 01°28' W 056°22'0 0.0
2017-Feb-20 10:32S 01°28' W 056°22'2 1.9
2017-Feb-20 09:33S 01°28' W 056°20'311 8.2
2017-Feb-18 19:33S 00°13' W 051°18'1010.1
2017-Feb-18 18:33S 00°07' W 051°10'8 7.8
2017-Feb-18 17:33S 00°02' W 051°03'7 6.8
2017-Feb-18 16:33N 00°03' W 050°59'1 1.0
2017-Feb-18 15:26N 00°04' W 050°59'0 0.0
2017-Feb-18 14:33N 00°04' W 050°59'0 0.2
2017-Feb-18 13:32N 00°04' W 050°59'0 0.1
2017-Feb-18 12:32N 00°04' W 050°59'0 0.0
2017-Feb-18 11:29N 00°04' W 050°59'0 0.0
2017-Feb-18 10:32N 00°04' W 050°59'0 0.0
2017-Feb-18 09:32N 00°04' W 050°59'0 0.2
2017-Feb-18 08:32N 00°04' W 050°59'0 0.0
2017-Feb-18 07:29N 00°04' W 050°59'0 0.0
2017-Feb-18 06:30N 00°04' W 050°59'0 0.0
2017-Feb-18 05:32N 00°04' W 050°59'0 0.0
2017-Feb-18 04:32N 00°04' W 050°59'0 0.0
2017-Feb-18 03:32N 00°04' W 050°59'0 0.0
2017-Feb-18 02:32N 00°04' W 050°59'0 0.1
2017-Feb-18 01:32N 00°04' W 050°59'0 0.2
2017-Feb-18 00:32N 00°04' W 050°59'0 0.0
2017-Feb-17 23:32N 00°04' W 050°59'0 0.0
2017-Feb-17 22:32N 00°04' W 050°59'0 0.0
2017-Feb-17 21:32N 00°04' W 050°59'0 0.2
2017-Feb-17 20:32N 00°04' W 050°59'0 0.1
2017-Feb-17 19:32N 00°04' W 050°59'0 0.0
2017-Feb-17 18:32N 00°04' W 050°59'0 0.0
2017-Feb-17 16:32N 00°04' W 050°59'0 0.0
2017-Feb-17 15:32N 00°04' W 050°59'0 0.0
2017-Feb-17 14:32N 00°04' W 050°59'0 0.1
2017-Feb-17 11:26N 00°04' W 050°59'0 0.0
2017-Feb-17 09:32N 00°04' W 050°59'0 0.1
2017-Feb-17 07:32N 00°04' W 050°59'0 0.0
2017-Feb-17 04:32N 00°04' W 050°59'0 0.0
2017-Feb-17 03:32N 00°04' W 050°59'0 0.0
2017-Feb-17 01:32N 00°04' W 050°59'0 0.1
2017-Feb-16 23:32N 00°04' W 050°59'0 0.0
2017-Feb-16 21:32N 00°04' W 050°59'0 0.1
2017-Feb-16 19:20N 00°04' W 050°59'0 0.1
2017-Feb-16 18:22N 00°04' W 050°59'0 0.0
2017-Feb-16 17:32N 00°04' W 050°59'0 0.0
2017-Feb-16 16:32N 00°04' W 050°59'0 0.0
2017-Feb-16 15:32N 00°04' W 050°59'0 0.0
2017-Feb-16 14:32N 00°04' W 050°59'0 0.0
2017-Feb-16 13:32N 00°04' W 050°59'0 0.0
2017-Feb-16 12:32N 00°04' W 050°59'0 0.2
2017-Feb-16 11:32N 00°04' W 050°59'0 0.1
2017-Feb-16 10:32N 00°04' W 050°59'0 0.0
2017-Feb-16 09:26N 00°04' W 050°59'0 0.0
2017-Feb-16 08:32N 00°04' W 050°59'0 0.1
2017-Feb-16 07:32N 00°04' W 050°59'0 0.1
2017-Feb-16 03:20N 00°04' W 050°59'0 0.0
2017-Feb-16 02:32N 00°04' W 050°59'0 0.1
2017-Feb-16 01:32N 00°04' W 050°59'0 0.0
2017-Feb-16 00:32N 00°04' W 050°59'0 0.1
2017-Feb-15 23:32N 00°04' W 050°59'0 0.2
2017-Feb-15 22:32N 00°04' W 050°59'0 0.0
2017-Feb-15 21:32N 00°04' W 050°59'0 0.0
2017-Feb-15 20:32N 00°04' W 050°59'0 0.0
2017-Feb-15 19:32N 00°04' W 050°59'0 0.2
2017-Feb-15 18:26N 00°04' W 050°59'0 0.0
2017-Feb-15 17:32N 00°04' W 050°59'0 0.0
2017-Feb-15 16:32N 00°04' W 050°59'0 0.0
2017-Feb-15 15:32N 00°04' W 050°59'0 0.0
2017-Feb-15 14:32N 00°04' W 050°59'0 0.0
2017-Feb-15 13:32N 00°04' W 050°59'0 0.0
2017-Feb-15 12:32N 00°04' W 050°59'0 0.1
2017-Feb-15 11:32N 00°04' W 050°59'0 0.2
2017-Feb-15 10:32N 00°04' W 050°59'0 0.1
2017-Feb-15 09:32N 00°04' W 050°59'0 0.0
2017-Feb-15 08:32N 00°04' W 050°59'0 0.0
2017-Feb-15 07:32N 00°04' W 050°59'0 0.2
2017-Feb-15 06:32N 00°04' W 050°59'0 0.1
2017-Feb-15 05:31N 00°04' W 050°59'0 0.0
2017-Feb-15 04:29N 00°04' W 050°59'0 0.0
2017-Feb-15 03:29N 00°04' W 050°59'0 0.0
2017-Feb-15 02:33N 00°04' W 050°59'0 0.0
2017-Feb-15 01:33N 00°04' W 050°59'0 0.0
2017-Feb-15 00:33N 00°04' W 050°59'0 0.1
2017-Feb-14 23:33N 00°04' W 050°59'0 0.2
2017-Feb-14 22:27N 00°04' W 050°59'0 0.1
2017-Feb-14 21:33N 00°04' W 050°59'0 0.0
2017-Feb-14 20:33N 00°04' W 050°59'0 0.0
2017-Feb-14 19:33N 00°04' W 050°59'0 0.1
2017-Feb-14 18:09N 00°04' W 050°59'0 0.3
2017-Feb-14 17:33N 00°04' W 050°59'  

Dump ship's entire track history